sensor_id;sensor_type;location;lat;lon;timestamp;temperature;humidity
23671;DHT22;12012;51.998;7.614;2022-07-05T00:01:40;16.40;1.00
23671;DHT22;12012;51.998;7.614;2022-07-05T00:04:05;16.40;1.00
23671;DHT22;12012;51.998;7.614;2022-07-05T00:06:31;16.40;1.00
23671;DHT22;12012;51.998;7.614;2022-07-05T00:08:57;16.40;1.00
23671;DHT22;12012;51.998;7.614;2022-07-05T00:11:22;16.40;1.00
23671;DHT22;12012;51.998;7.614;2022-07-05T00:13:48;16.40;1.00
23671;DHT22;12012;51.998;7.614;2022-07-05T00:16:14;16.50;1.40
23671;DHT22;12012;51.998;7.614;2022-07-05T00:18:39;16.50;1.00
23671;DHT22;12012;51.998;7.614;2022-07-05T00:21:05;16.50;1.00
23671;DHT22;12012;51.998;7.614;2022-07-05T00:23:30;16.50;1.00
23671;DHT22;12012;51.998;7.614;2022-07-05T00:25:56;16.50;7.00
23671;DHT22;12012;51.998;7.614;2022-07-05T00:28:21;16.50;4.20
23671;DHT22;12012;51.998;7.614;2022-07-05T00:30:47;16.50;1.00
23671;DHT22;12012;51.998;7.614;2022-07-05T00:33:13;16.50;6.50
23671;DHT22;12012;51.998;7.614;2022-07-05T00:35:38;16.50;1.00
23671;DHT22;12012;51.998;7.614;2022-07-05T00:38:04;16.60;1.00
23671;DHT22;12012;51.998;7.614;2022-07-05T00:40:30;16.60;1.00
23671;DHT22;12012;51.998;7.614;2022-07-05T00:42:55;16.60;1.00
23671;DHT22;12012;51.998;7.614;2022-07-05T00:45:21;16.60;1.00
23671;DHT22;12012;51.998;7.614;2022-07-05T00:47:46;16.60;1.00
23671;DHT22;12012;51.998;7.614;2022-07-05T00:50:12;16.60;1.00
23671;DHT22;12012;51.998;7.614;2022-07-05T00:52:38;16.60;1.00
23671;DHT22;12012;51.998;7.614;2022-07-05T00:55:05;16.70;1.00
23671;DHT22;12012;51.998;7.614;2022-07-05T00:57:31;16.60;1.00
23671;DHT22;12012;51.998;7.614;2022-07-05T00:59:57;16.60;1.00
23671;DHT22;12012;51.998;7.614;2022-07-05T01:02:23;16.60;1.00
23671;DHT22;12012;51.998;7.614;2022-07-05T01:04:50;16.60;1.00
23671;DHT22;12012;51.998;7.614;2022-07-05T01:07:21;16.60;1.00
23671;DHT22;12012;51.998;7.614;2022-07-05T01:09:50;16.60;1.00
23671;DHT22;12012;51.998;7.614;2022-07-05T01:12:17;16.60;1.00
23671;DHT22;12012;51.998;7.614;2022-07-05T01:14:42;16.60;1.00
23671;DHT22;12012;51.998;7.614;2022-07-05T01:17:09;16.50;1.00
23671;DHT22;12012;51.998;7.614;2022-07-05T01:19:35;16.50;1.00
23671;DHT22;12012;51.998;7.614;2022-07-05T01:22:03;16.40;1.00
23671;DHT22;12012;51.998;7.614;2022-07-05T01:24:33;16.40;1.00
23671;DHT22;12012;51.998;7.614;2022-07-05T01:26:58;16.30;1.00
23671;DHT22;12012;51.998;7.614;2022-07-05T01:29:24;16.30;1.00
23671;DHT22;12012;51.998;7.614;2022-07-05T01:31:50;16.30;1.00
23671;DHT22;12012;51.998;7.614;2022-07-05T01:34:16;16.30;1.00
23671;DHT22;12012;51.998;7.614;2022-07-05T01:36:41;16.30;1.00
23671;DHT22;12012;51.998;7.614;2022-07-05T01:39:08;16.20;1.00
23671;DHT22;12012;51.998;7.614;2022-07-05T01:41:33;16.20;1.00
23671;DHT22;12012;51.998;7.614;2022-07-05T01:43:59;16.30;1.00
23671;DHT22;12012;51.998;7.614;2022-07-05T01:46:28;16.20;1.00
23671;DHT22;12012;51.998;7.614;2022-07-05T01:48:56;16.20;1.00
23671;DHT22;12012;51.998;7.614;2022-07-05T01:51:30;16.20;1.00
23671;DHT22;12012;51.998;7.614;2022-07-05T01:53:58;16.20;1.00
23671;DHT22;12012;51.998;7.614;2022-07-05T01:56:24;16.10;1.00
23671;DHT22;12012;51.998;7.614;2022-07-05T01:58:51;16.10;1.00
23671;DHT22;12012;51.998;7.614;2022-07-05T02:01:32;16.10;1.00
23671;DHT22;12012;51.998;7.614;2022-07-05T02:03:57;16.10;1.00
23671;DHT22;12012;51.998;7.614;2022-07-05T02:06:23;16.10;1.00
23671;DHT22;12012;51.998;7.614;2022-07-05T02:08:49;16.00;1.00
23671;DHT22;12012;51.998;7.614;2022-07-05T02:11:14;16.00;1.00
23671;DHT22;12012;51.998;7.614;2022-07-05T02:13:40;16.00;1.00
23671;DHT22;12012;51.998;7.614;2022-07-05T02:16:06;16.00;1.00
23671;DHT22;12012;51.998;7.614;2022-07-05T02:18:31;16.00;1.00
23671;DHT22;12012;51.998;7.614;2022-07-05T02:20:57;16.00;1.00
23671;DHT22;12012;51.998;7.614;2022-07-05T02:23:22;16.00;1.00
23671;DHT22;12012;51.998;7.614;2022-07-05T02:25:48;15.90;22.60
23671;DHT22;12012;51.998;7.614;2022-07-05T02:28:13;15.90;47.90
23671;DHT22;12012;51.998;7.614;2022-07-05T02:30:39;16.00;42.30
23671;DHT22;12012;51.998;7.614;2022-07-05T02:33:05;15.90;33.20
23671;DHT22;12012;51.998;7.614;2022-07-05T02:35:30;15.90;39.10
23671;DHT22;12012;51.998;7.614;2022-07-05T02:37:56;15.90;34.00
23671;DHT22;12012;51.998;7.614;2022-07-05T02:40:22;15.90;44.00
23671;DHT22;12012;51.998;7.614;2022-07-05T02:42:47;15.80;43.40
23671;DHT22;12012;51.998;7.614;2022-07-05T02:45:13;15.80;46.00
23671;DHT22;12012;51.998;7.614;2022-07-05T02:47:39;15.80;41.30
23671;DHT22;12012;51.998;7.614;2022-07-05T02:50:08;15.80;55.60
23671;DHT22;12012;51.998;7.614;2022-07-05T02:52:35;15.80;58.10
23671;DHT22;12012;51.998;7.614;2022-07-05T02:55:02;15.80;70.80
23671;DHT22;12012;51.998;7.614;2022-07-05T02:57:28;15.70;95.70
23671;DHT22;12012;51.998;7.614;2022-07-05T02:59:54;15.70;99.90
23671;DHT22;12012;51.998;7.614;2022-07-05T03:02:20;15.70;99.90
23671;DHT22;12012;51.998;7.614;2022-07-05T03:04:47;15.70;99.90
23671;DHT22;12012;51.998;7.614;2022-07-05T03:07:12;15.80;99.90
23671;DHT22;12012;51.998;7.614;2022-07-05T03:09:38;15.80;99.90
23671;DHT22;12012;51.998;7.614;2022-07-05T03:12:04;15.80;99.90
23671;DHT22;12012;51.998;7.614;2022-07-05T03:14:30;15.80;99.90
23671;DHT22;12012;51.998;7.614;2022-07-05T03:16:56;15.70;99.90
23671;DHT22;12012;51.998;7.614;2022-07-05T03:19:22;15.70;99.90
23671;DHT22;12012;51.998;7.614;2022-07-05T03:21:47;15.70;99.90
23671;DHT22;12012;51.998;7.614;2022-07-05T03:24:13;15.70;99.90
23671;DHT22;12012;51.998;7.614;2022-07-05T03:26:38;15.70;99.90
23671;DHT22;12012;51.998;7.614;2022-07-05T03:29:04;15.70;99.90
23671;DHT22;12012;51.998;7.614;2022-07-05T03:31:30;15.70;99.90
23671;DHT22;12012;51.998;7.614;2022-07-05T03:33:55;15.70;99.90
23671;DHT22;12012;51.998;7.614;2022-07-05T03:36:22;15.70;99.90
23671;DHT22;12012;51.998;7.614;2022-07-05T03:38:47;15.70;99.90
23671;DHT22;12012;51.998;7.614;2022-07-05T03:41:13;15.60;99.90
23671;DHT22;12012;51.998;7.614;2022-07-05T03:43:38;15.60;99.90
23671;DHT22;12012;51.998;7.614;2022-07-05T03:46:04;15.60;99.90
23671;DHT22;12012;51.998;7.614;2022-07-05T03:48:30;15.60;99.90
23671;DHT22;12012;51.998;7.614;2022-07-05T03:50:55;15.60;99.90
23671;DHT22;12012;51.998;7.614;2022-07-05T03:53:21;15.60;99.90
23671;DHT22;12012;51.998;7.614;2022-07-05T03:55:47;15.50;99.90
23671;DHT22;12012;51.998;7.614;2022-07-05T03:58:12;15.50;99.90
23671;DHT22;12012;51.998;7.614;2022-07-05T04:00:38;15.50;99.90
23671;DHT22;12012;51.998;7.614;2022-07-05T04:03:03;15.40;99.90
23671;DHT22;12012;51.998;7.614;2022-07-05T04:05:29;15.40;99.90
23671;DHT22;12012;51.998;7.614;2022-07-05T04:07:55;15.40;99.90
23671;DHT22;12012;51.998;7.614;2022-07-05T04:10:22;15.40;99.90
23671;DHT22;12012;51.998;7.614;2022-07-05T04:12:47;15.30;99.90
23671;DHT22;12012;51.998;7.614;2022-07-05T04:15:14;15.30;99.90
23671;DHT22;12012;51.998;7.614;2022-07-05T04:17:47;15.20;99.90
23671;DHT22;12012;51.998;7.614;2022-07-05T04:20:13;15.20;1.00
23671;DHT22;12012;51.998;7.614;2022-07-05T04:22:38;15.20;1.00
23671;DHT22;12012;51.998;7.614;2022-07-05T04:25:04;15.20;1.00
23671;DHT22;12012;51.998;7.614;2022-07-05T04:27:46;15.20;1.00
23671;DHT22;12012;51.998;7.614;2022-07-05T04:30:12;15.20;1.00
23671;DHT22;12012;51.998;7.614;2022-07-05T04:32:38;15.20;1.00
23671;DHT22;12012;51.998;7.614;2022-07-05T04:35:04;15.20;1.00
23671;DHT22;12012;51.998;7.614;2022-07-05T04:37:30;15.20;1.00
23671;DHT22;12012;51.998;7.614;2022-07-05T04:39:55;15.20;99.90
23671;DHT22;12012;51.998;7.614;2022-07-05T04:42:21;15.30;99.90
23671;DHT22;12012;51.998;7.614;2022-07-05T04:44:47;15.30;99.90
23671;DHT22;12012;51.998;7.614;2022-07-05T04:47:12;15.40;99.90
23671;DHT22;12012;51.998;7.614;2022-07-05T04:49:38;15.40;99.90
23671;DHT22;12012;51.998;7.614;2022-07-05T04:52:04;15.50;99.90
23671;DHT22;12012;51.998;7.614;2022-07-05T04:54:29;15.50;99.90
23671;DHT22;12012;51.998;7.614;2022-07-05T04:56:55;15.60;99.90
23671;DHT22;12012;51.998;7.614;2022-07-05T04:59:20;15.60;99.90
23671;DHT22;12012;51.998;7.614;2022-07-05T05:01:46;15.70;99.90
23671;DHT22;12012;51.998;7.614;2022-07-05T05:04:12;15.70;99.90
23671;DHT22;12012;51.998;7.614;2022-07-05T05:06:37;15.80;99.90
23671;DHT22;12012;51.998;7.614;2022-07-05T05:09:03;15.90;99.90
23671;DHT22;12012;51.998;7.614;2022-07-05T05:11:28;16.00;99.90
23671;DHT22;12012;51.998;7.614;2022-07-05T05:13:54;16.10;99.90
23671;DHT22;12012;51.998;7.614;2022-07-05T05:16:20;16.20;99.90
23671;DHT22;12012;51.998;7.614;2022-07-05T05:18:46;16.30;99.90
23671;DHT22;12012;51.998;7.614;2022-07-05T05:21:12;16.40;99.90
23671;DHT22;12012;51.998;7.614;2022-07-05T05:23:37;16.50;99.90
23671;DHT22;12012;51.998;7.614;2022-07-05T05:26:03;16.70;99.90
23671;DHT22;12012;51.998;7.614;2022-07-05T05:28:28;16.80;99.90
23671;DHT22;12012;51.998;7.614;2022-07-05T05:30:54;17.00;99.90
23671;DHT22;12012;51.998;7.614;2022-07-05T05:33:20;17.10;99.90
23671;DHT22;12012;51.998;7.614;2022-07-05T05:35:45;17.30;99.90
23671;DHT22;12012;51.998;7.614;2022-07-05T05:38:11;17.30;99.90
23671;DHT22;12012;51.998;7.614;2022-07-05T05:40:36;17.50;99.90
23671;DHT22;12012;51.998;7.614;2022-07-05T05:43:03;17.60;99.90
23671;DHT22;12012;51.998;7.614;2022-07-05T05:45:29;17.70;99.90
23671;DHT22;12012;51.998;7.614;2022-07-05T05:47:57;17.90;99.90
23671;DHT22;12012;51.998;7.614;2022-07-05T05:50:31;18.00;99.90
23671;DHT22;12012;51.998;7.614;2022-07-05T05:52:57;18.10;82.50
23671;DHT22;12012;51.998;7.614;2022-07-05T05:55:25;18.20;63.70
23671;DHT22;12012;51.998;7.614;2022-07-05T05:57:51;18.30;52.70
23671;DHT22;12012;51.998;7.614;2022-07-05T06:00:17;18.50;40.20
23671;DHT22;12012;51.998;7.614;2022-07-05T06:02:44;18.60;28.30
23671;DHT22;12012;51.998;7.614;2022-07-05T06:05:10;18.70;17.60
23671;DHT22;12012;51.998;7.614;2022-07-05T06:07:53;18.90;9.40
23671;DHT22;12012;51.998;7.614;2022-07-05T06:10:23;19.00;1.00
23671;DHT22;12012;51.998;7.614;2022-07-05T06:12:50;19.10;1.00
23671;DHT22;12012;51.998;7.614;2022-07-05T06:15:17;19.20;1.00
23671;DHT22;12012;51.998;7.614;2022-07-05T06:17:42;19.30;1.00
23671;DHT22;12012;51.998;7.614;2022-07-05T06:20:17;19.40;1.00
23671;DHT22;12012;51.998;7.614;2022-07-05T06:22:43;19.50;1.00
23671;DHT22;12012;51.998;7.614;2022-07-05T06:25:09;19.60;1.00
23671;DHT22;12012;51.998;7.614;2022-07-05T06:27:39;19.70;1.00
23671;DHT22;12012;51.998;7.614;2022-07-05T06:30:06;19.90;1.00
23671;DHT22;12012;51.998;7.614;2022-07-05T06:32:31;20.00;1.00
23671;DHT22;12012;51.998;7.614;2022-07-05T06:34:57;20.10;1.00
23671;DHT22;12012;51.998;7.614;2022-07-05T06:37:23;20.10;1.00
23671;DHT22;12012;51.998;7.614;2022-07-05T06:39:48;20.30;1.00
23671;DHT22;12012;51.998;7.614;2022-07-05T06:42:14;20.40;1.00
23671;DHT22;12012;51.998;7.614;2022-07-05T06:44:40;20.40;1.00
23671;DHT22;12012;51.998;7.614;2022-07-05T06:47:05;20.50;1.00
23671;DHT22;12012;51.998;7.614;2022-07-05T06:49:31;20.60;1.00
23671;DHT22;12012;51.998;7.614;2022-07-05T06:51:56;20.70;1.00
23671;DHT22;12012;51.998;7.614;2022-07-05T06:54:22;20.70;1.00
23671;DHT22;12012;51.998;7.614;2022-07-05T06:56:47;20.80;1.00
23671;DHT22;12012;51.998;7.614;2022-07-05T06:59:13;20.90;1.00
23671;DHT22;12012;51.998;7.614;2022-07-05T07:01:39;20.90;1.00
23671;DHT22;12012;51.998;7.614;2022-07-05T07:04:04;21.00;1.00
23671;DHT22;12012;51.998;7.614;2022-07-05T07:06:30;21.10;1.00
23671;DHT22;12012;51.998;7.614;2022-07-05T07:08:55;21.20;1.00
23671;DHT22;12012;51.998;7.614;2022-07-05T07:11:39;21.30;1.00
23671;DHT22;12012;51.998;7.614;2022-07-05T07:14:05;21.40;1.00
23671;DHT22;12012;51.998;7.614;2022-07-05T07:16:31;21.60;1.00
23671;DHT22;12012;51.998;7.614;2022-07-05T07:18:56;21.70;1.00
23671;DHT22;12012;51.998;7.614;2022-07-05T07:21:22;21.90;1.00
23671;DHT22;12012;51.998;7.614;2022-07-05T07:23:48;22.10;1.00
23671;DHT22;12012;51.998;7.614;2022-07-05T07:26:13;22.20;1.00
23671;DHT22;12012;51.998;7.614;2022-07-05T07:28:40;22.30;1.00
23671;DHT22;12012;51.998;7.614;2022-07-05T07:31:06;22.30;1.00
23671;DHT22;12012;51.998;7.614;2022-07-05T07:33:32;22.40;1.00
23671;DHT22;12012;51.998;7.614;2022-07-05T07:35:58;22.40;1.00
23671;DHT22;12012;51.998;7.614;2022-07-05T07:38:24;22.40;1.00
23671;DHT22;12012;51.998;7.614;2022-07-05T07:40:51;22.50;1.00
23671;DHT22;12012;51.998;7.614;2022-07-05T07:43:17;22.50;1.00
23671;DHT22;12012;51.998;7.614;2022-07-05T07:45:43;22.40;1.00
23671;DHT22;12012;51.998;7.614;2022-07-05T07:48:08;22.40;1.00
23671;DHT22;12012;51.998;7.614;2022-07-05T07:50:34;22.40;1.00
23671;DHT22;12012;51.998;7.614;2022-07-05T07:53:00;22.50;1.00
23671;DHT22;12012;51.998;7.614;2022-07-05T07:55:25;22.50;99.90
23671;DHT22;12012;51.998;7.614;2022-07-05T07:57:51;22.50;99.90
23671;DHT22;12012;51.998;7.614;2022-07-05T08:00:18;22.60;99.90
23671;DHT22;12012;51.998;7.614;2022-07-05T08:02:43;22.50;99.90
23671;DHT22;12012;51.998;7.614;2022-07-05T08:05:09;22.40;99.90
23671;DHT22;12012;51.998;7.614;2022-07-05T08:07:38;22.40;99.90
23671;DHT22;12012;51.998;7.614;2022-07-05T08:10:04;22.30;99.90
23671;DHT22;12012;51.998;7.614;2022-07-05T08:12:30;22.40;99.90
23671;DHT22;12012;51.998;7.614;2022-07-05T08:14:56;22.50;99.90
23671;DHT22;12012;51.998;7.614;2022-07-05T08:17:21;22.60;99.90
23671;DHT22;12012;51.998;7.614;2022-07-05T08:19:47;22.70;99.90
23671;DHT22;12012;51.998;7.614;2022-07-05T08:22:31;22.70;99.90
23671;DHT22;12012;51.998;7.614;2022-07-05T08:24:57;22.90;99.90
23671;DHT22;12012;51.998;7.614;2022-07-05T08:27:23;23.30;99.90
23671;DHT22;12012;51.998;7.614;2022-07-05T08:29:49;23.70;99.90
23671;DHT22;12012;51.998;7.614;2022-07-05T08:32:15;24.10;99.90
23671;DHT22;12012;51.998;7.614;2022-07-05T08:34:41;24.50;99.90
23671;DHT22;12012;51.998;7.614;2022-07-05T08:37:07;25.00;99.90
23671;DHT22;12012;51.998;7.614;2022-07-05T08:39:33;25.40;99.90
23671;DHT22;12012;51.998;7.614;2022-07-05T08:41:58;25.80;99.90
23671;DHT22;12012;51.998;7.614;2022-07-05T08:44:27;26.00;99.90
23671;DHT22;12012;51.998;7.614;2022-07-05T08:46:55;26.10;99.90
23671;DHT22;12012;51.998;7.614;2022-07-05T08:49:23;26.30;99.90
23671;DHT22;12012;51.998;7.614;2022-07-05T08:51:50;26.40;99.90
23671;DHT22;12012;51.998;7.614;2022-07-05T08:54:16;26.60;99.90
23671;DHT22;12012;51.998;7.614;2022-07-05T08:56:42;27.00;99.90
23671;DHT22;12012;51.998;7.614;2022-07-05T08:59:08;27.00;99.90
23671;DHT22;12012;51.998;7.614;2022-07-05T09:01:34;26.90;99.90
23671;DHT22;12012;51.998;7.614;2022-07-05T09:04:03;26.50;99.90
23671;DHT22;12012;51.998;7.614;2022-07-05T09:06:32;26.40;99.90
23671;DHT22;12012;51.998;7.614;2022-07-05T09:08:59;26.50;99.90
23671;DHT22;12012;51.998;7.614;2022-07-05T09:11:35;26.60;99.90
23671;DHT22;12012;51.998;7.614;2022-07-05T09:14:06;27.00;99.90
23671;DHT22;12012;51.998;7.614;2022-07-05T09:16:32;27.50;99.90
23671;DHT22;12012;51.998;7.614;2022-07-05T09:19:05;27.90;99.90
23671;DHT22;12012;51.998;7.614;2022-07-05T09:21:31;28.00;99.90
23671;DHT22;12012;51.998;7.614;2022-07-05T09:24:01;27.70;99.90
23671;DHT22;12012;51.998;7.614;2022-07-05T09:26:53;27.50;99.90
23671;DHT22;12012;51.998;7.614;2022-07-05T09:29:26;27.50;99.90
23671;DHT22;12012;51.998;7.614;2022-07-05T09:31:51;27.90;99.90
23671;DHT22;12012;51.998;7.614;2022-07-05T09:34:19;28.20;99.90
23671;DHT22;12012;51.998;7.614;2022-07-05T09:39:15;28.20;99.90
23671;DHT22;12012;51.998;7.614;2022-07-05T09:41:40;27.90;99.90
23671;DHT22;12012;51.998;7.614;2022-07-05T09:44:06;27.50;99.90
23671;DHT22;12012;51.998;7.614;2022-07-05T09:46:32;27.20;99.90
23671;DHT22;12012;51.998;7.614;2022-07-05T09:48:58;26.90;99.90
23671;DHT22;12012;51.998;7.614;2022-07-05T09:51:24;26.50;99.90
23671;DHT22;12012;51.998;7.614;2022-07-05T09:53:55;26.30;99.90
23671;DHT22;12012;51.998;7.614;2022-07-05T09:56:21;26.10;99.90
23671;DHT22;12012;51.998;7.614;2022-07-05T09:58:47;26.30;99.90
23671;DHT22;12012;51.998;7.614;2022-07-05T10:01:29;26.40;99.90
23671;DHT22;12012;51.998;7.614;2022-07-05T10:03:57;26.30;99.90
23671;DHT22;12012;51.998;7.614;2022-07-05T10:06:25;26.00;99.90
23671;DHT22;12012;51.998;7.614;2022-07-05T10:08:52;25.70;99.90
23671;DHT22;12012;51.998;7.614;2022-07-05T10:11:19;25.40;99.90
23671;DHT22;12012;51.998;7.614;2022-07-05T10:13:49;25.50;99.90
23671;DHT22;12012;51.998;7.614;2022-07-05T10:16:19;26.20;99.90
23671;DHT22;12012;51.998;7.614;2022-07-05T10:18:46;27.00;99.90
23671;DHT22;12012;51.998;7.614;2022-07-05T10:21:16;27.60;99.90
23671;DHT22;12012;51.998;7.614;2022-07-05T10:23:44;27.60;99.90
23671;DHT22;12012;51.998;7.614;2022-07-05T10:26:11;27.30;99.90
23671;DHT22;12012;51.998;7.614;2022-07-05T10:28:41;27.30;99.90
23671;DHT22;12012;51.998;7.614;2022-07-05T10:31:11;27.40;99.90
23671;DHT22;12012;51.998;7.614;2022-07-05T10:33:37;27.30;99.90
23671;DHT22;12012;51.998;7.614;2022-07-05T10:36:04;27.80;99.90
23671;DHT22;12012;51.998;7.614;2022-07-05T10:38:35;28.60;99.90
23671;DHT22;12012;51.998;7.614;2022-07-05T10:41:03;29.40;99.90
23671;DHT22;12012;51.998;7.614;2022-07-05T10:43:30;29.30;99.90
23671;DHT22;12012;51.998;7.614;2022-07-05T10:45:56;29.00;99.90
23671;DHT22;12012;51.998;7.614;2022-07-05T10:50:52;28.20;99.90
23671;DHT22;12012;51.998;7.614;2022-07-05T10:53:26;27.90;99.90
23671;DHT22;12012;51.998;7.614;2022-07-05T10:58:34;26.90;99.90
23671;DHT22;12012;51.998;7.614;2022-07-05T11:06:28;27.20;99.90
23671;DHT22;12012;51.998;7.614;2022-07-05T11:11:28;29.00;99.90
23671;DHT22;12012;51.998;7.614;2022-07-05T11:13:54;29.40;99.90
23671;DHT22;12012;51.998;7.614;2022-07-05T11:16:23;29.40;99.90
23671;DHT22;12012;51.998;7.614;2022-07-05T11:18:51;29.20;99.90
23671;DHT22;12012;51.998;7.614;2022-07-05T11:21:22;28.90;99.90
23671;DHT22;12012;51.998;7.614;2022-07-05T11:23:48;28.80;99.90
23671;DHT22;12012;51.998;7.614;2022-07-05T11:26:16;28.60;99.90
23671;DHT22;12012;51.998;7.614;2022-07-05T11:28:47;28.60;99.90
23671;DHT22;12012;51.998;7.614;2022-07-05T11:31:38;28.50;99.90
23671;DHT22;12012;51.998;7.614;2022-07-05T11:34:12;28.40;99.90
23671;DHT22;12012;51.998;7.614;2022-07-05T11:36:38;28.20;99.90
23671;DHT22;12012;51.998;7.614;2022-07-05T11:39:15;28.10;99.90
23671;DHT22;12012;51.998;7.614;2022-07-05T11:41:44;28.00;99.90
23671;DHT22;12012;51.998;7.614;2022-07-05T11:44:10;27.90;99.90
23671;DHT22;12012;51.998;7.614;2022-07-05T11:46:37;28.30;99.90
23671;DHT22;12012;51.998;7.614;2022-07-05T11:49:03;29.10;99.90
23671;DHT22;12012;51.998;7.614;2022-07-05T11:51:28;30.10;99.90
23671;DHT22;12012;51.998;7.614;2022-07-05T11:53:54;30.40;99.90
23671;DHT22;12012;51.998;7.614;2022-07-05T11:56:20;30.10;99.90
23671;DHT22;12012;51.998;7.614;2022-07-05T11:58:45;29.60;99.90
23671;DHT22;12012;51.998;7.614;2022-07-05T12:01:11;29.00;99.90
23671;DHT22;12012;51.998;7.614;2022-07-05T12:03:37;28.50;99.90
23671;DHT22;12012;51.998;7.614;2022-07-05T12:06:13;28.10;99.90
23671;DHT22;12012;51.998;7.614;2022-07-05T12:08:41;27.80;99.90
23671;DHT22;12012;51.998;7.614;2022-07-05T12:11:10;27.70;99.90
23671;DHT22;12012;51.998;7.614;2022-07-05T12:13:54;27.70;99.90
23671;DHT22;12012;51.998;7.614;2022-07-05T12:16:20;28.00;99.90
23671;DHT22;12012;51.998;7.614;2022-07-05T12:18:53;28.20;99.90
23671;DHT22;12012;51.998;7.614;2022-07-05T12:21:21;28.30;99.90
23671;DHT22;12012;51.998;7.614;2022-07-05T12:23:48;28.40;99.90
23671;DHT22;12012;51.998;7.614;2022-07-05T12:26:15;28.90;99.90
23671;DHT22;12012;51.998;7.614;2022-07-05T12:28:42;29.40;99.90
23671;DHT22;12012;51.998;7.614;2022-07-05T12:33:44;30.60;99.90
23671;DHT22;12012;51.998;7.614;2022-07-05T12:36:14;31.30;99.90
23671;DHT22;12012;51.998;7.614;2022-07-05T12:38:40;31.80;99.90
23671;DHT22;12012;51.998;7.614;2022-07-05T12:41:06;31.70;99.90
23671;DHT22;12012;51.998;7.614;2022-07-05T12:43:31;31.70;99.90
23671;DHT22;12012;51.998;7.614;2022-07-05T12:46:02;31.40;99.90
23671;DHT22;12012;51.998;7.614;2022-07-05T12:48:38;30.90;99.90
23671;DHT22;12012;51.998;7.614;2022-07-05T12:51:06;30.30;99.90
23671;DHT22;12012;51.998;7.614;2022-07-05T12:53:32;29.90;99.90
23671;DHT22;12012;51.998;7.614;2022-07-05T12:56:15;29.50;99.90
23671;DHT22;12012;51.998;7.614;2022-07-05T12:59:03;29.50;99.90
23671;DHT22;12012;51.998;7.614;2022-07-05T13:01:33;30.30;99.90
23671;DHT22;12012;51.998;7.614;2022-07-05T13:04:11;30.20;99.90
23671;DHT22;12012;51.998;7.614;2022-07-05T13:06:52;29.90;99.90
23671;DHT22;12012;51.998;7.614;2022-07-05T13:14:45;30.70;99.90
23671;DHT22;12012;51.998;7.614;2022-07-05T13:17:13;31.40;99.90
23671;DHT22;12012;51.998;7.614;2022-07-05T13:19:40;31.20;99.90
23671;DHT22;12012;51.998;7.614;2022-07-05T13:22:06;30.60;99.90
23671;DHT22;12012;51.998;7.614;2022-07-05T13:24:32;30.20;99.90
23671;DHT22;12012;51.998;7.614;2022-07-05T13:26:58;30.00;99.90
23671;DHT22;12012;51.998;7.614;2022-07-05T13:29:24;29.90;99.90
23671;DHT22;12012;51.998;7.614;2022-07-05T13:31:50;29.80;99.90
23671;DHT22;12012;51.998;7.614;2022-07-05T13:34:16;29.60;99.90
23671;DHT22;12012;51.998;7.614;2022-07-05T13:36:42;29.40;99.90
23671;DHT22;12012;51.998;7.614;2022-07-05T13:39:08;29.30;99.90
23671;DHT22;12012;51.998;7.614;2022-07-05T13:41:33;29.30;99.90
23671;DHT22;12012;51.998;7.614;2022-07-05T13:43:59;29.40;99.90
23671;DHT22;12012;51.998;7.614;2022-07-05T13:46:25;30.20;99.90
23671;DHT22;12012;51.998;7.614;2022-07-05T13:48:51;30.40;99.90
23671;DHT22;12012;51.998;7.614;2022-07-05T13:51:16;30.40;99.90
23671;DHT22;12012;51.998;7.614;2022-07-05T13:53:42;30.20;99.90
23671;DHT22;12012;51.998;7.614;2022-07-05T13:56:08;29.90;99.90
23671;DHT22;12012;51.998;7.614;2022-07-05T13:58:34;29.40;99.90
23671;DHT22;12012;51.998;7.614;2022-07-05T14:01:00;29.00;99.90
23671;DHT22;12012;51.998;7.614;2022-07-05T14:03:26;28.90;99.90
23671;DHT22;12012;51.998;7.614;2022-07-05T14:05:52;29.00;99.90
23671;DHT22;12012;51.998;7.614;2022-07-05T14:08:18;29.10;99.90
23671;DHT22;12012;51.998;7.614;2022-07-05T14:10:51;29.10;99.90
23671;DHT22;12012;51.998;7.614;2022-07-05T14:13:21;28.90;99.90
23671;DHT22;12012;51.998;7.614;2022-07-05T14:15:47;28.60;99.90
23671;DHT22;12012;51.998;7.614;2022-07-05T14:18:14;28.20;99.90
23671;DHT22;12012;51.998;7.614;2022-07-05T14:20:41;27.90;99.90
23671;DHT22;12012;51.998;7.614;2022-07-05T14:23:06;27.60;99.90
23671;DHT22;12012;51.998;7.614;2022-07-05T14:25:32;27.30;99.90
23671;DHT22;12012;51.998;7.614;2022-07-05T14:27:57;27.00;99.90
23671;DHT22;12012;51.998;7.614;2022-07-05T14:30:23;26.80;99.90
23671;DHT22;12012;51.998;7.614;2022-07-05T14:32:49;26.70;99.90
23671;DHT22;12012;51.998;7.614;2022-07-05T14:35:16;26.70;99.90
23671;DHT22;12012;51.998;7.614;2022-07-05T14:37:42;26.90;99.90
23671;DHT22;12012;51.998;7.614;2022-07-05T14:40:08;27.00;99.90
23671;DHT22;12012;51.998;7.614;2022-07-05T14:42:34;27.00;99.90
23671;DHT22;12012;51.998;7.614;2022-07-05T14:45:00;26.90;99.90
23671;DHT22;12012;51.998;7.614;2022-07-05T14:47:25;26.70;99.90
23671;DHT22;12012;51.998;7.614;2022-07-05T14:49:52;26.60;99.90
23671;DHT22;12012;51.998;7.614;2022-07-05T14:52:19;26.40;99.90
23671;DHT22;12012;51.998;7.614;2022-07-05T14:54:45;26.40;99.90
23671;DHT22;12012;51.998;7.614;2022-07-05T14:57:11;26.60;99.90
23671;DHT22;12012;51.998;7.614;2022-07-05T14:59:36;27.20;99.90
23671;DHT22;12012;51.998;7.614;2022-07-05T15:02:02;27.50;99.90
23671;DHT22;12012;51.998;7.614;2022-07-05T15:04:29;27.60;99.90
23671;DHT22;12012;51.998;7.614;2022-07-05T15:06:55;27.50;99.90
23671;DHT22;12012;51.998;7.614;2022-07-05T15:09:20;27.30;99.90
23671;DHT22;12012;51.998;7.614;2022-07-05T15:11:47;27.00;99.90
23671;DHT22;12012;51.998;7.614;2022-07-05T15:14:13;26.80;99.90
23671;DHT22;12012;51.998;7.614;2022-07-05T15:16:39;26.50;99.90
23671;DHT22;12012;51.998;7.614;2022-07-05T15:19:06;26.30;99.90
23671;DHT22;12012;51.998;7.614;2022-07-05T15:21:32;26.30;99.90
23671;DHT22;12012;51.998;7.614;2022-07-05T15:23:57;26.50;99.90
23671;DHT22;12012;51.998;7.614;2022-07-05T15:26:23;27.10;99.90
23671;DHT22;12012;51.998;7.614;2022-07-05T15:28:49;27.80;99.90
23671;DHT22;12012;51.998;7.614;2022-07-05T15:31:15;28.20;99.90
23671;DHT22;12012;51.998;7.614;2022-07-05T15:33:41;28.20;99.90
23671;DHT22;12012;51.998;7.614;2022-07-05T15:36:06;28.10;99.90
23671;DHT22;12012;51.998;7.614;2022-07-05T15:38:32;27.90;99.90
23671;DHT22;12012;51.998;7.614;2022-07-05T15:40:58;27.70;99.90
23671;DHT22;12012;51.998;7.614;2022-07-05T15:43:24;27.50;99.90
23671;DHT22;12012;51.998;7.614;2022-07-05T15:45:52;27.40;99.90
23671;DHT22;12012;51.998;7.614;2022-07-05T15:48:19;27.40;99.90
23671;DHT22;12012;51.998;7.614;2022-07-05T15:50:44;27.40;99.90
23671;DHT22;12012;51.998;7.614;2022-07-05T15:53:10;27.30;99.90
23671;DHT22;12012;51.998;7.614;2022-07-05T15:55:36;27.10;99.90
23671;DHT22;12012;51.998;7.614;2022-07-05T15:58:01;27.00;99.90